sensor_id;sensor_type;location;lat;lon;timestamp;pressure;altitude;pressure_sealevel;temperature;humidity
61537;BME280;48695;53.480;-6.300;2023-08-21T00:01:05;101216.84;;;20.56;56.63
61537;BME280;48695;53.480;-6.300;2023-08-21T00:03:30;101222.91;;;20.58;56.34
61537;BME280;48695;53.480;-6.300;2023-08-21T00:05:56;101221.19;;;20.57;56.27
61537;BME280;48695;53.480;-6.300;2023-08-21T00:08:21;101225.75;;;20.55;57.02
61537;BME280;48695;53.480;-6.300;2023-08-21T00:10:47;101213.13;;;20.42;57.29
61537;BME280;48695;53.480;-6.300;2023-08-21T00:13:13;101180.44;;;20.26;57.41
61537;BME280;48695;53.480;-6.300;2023-08-21T00:15:38;101220.84;;;20.47;57.69
61537;BME280;48695;53.480;-6.300;2023-08-21T00:18:05;101216.56;;;20.44;57.15
61537;BME280;48695;53.480;-6.300;2023-08-21T00:20:30;101215.78;;;20.42;57.74
61537;BME280;48695;53.480;-6.300;2023-08-21T00:22:56;101215.97;;;20.39;57.69
61537;BME280;48695;53.480;-6.300;2023-08-21T00:25:22;101128.94;;;19.83;57.83
61537;BME280;48695;53.480;-6.300;2023-08-21T00:27:47;101216.13;;;20.36;57.97
61537;BME280;48695;53.480;-6.300;2023-08-21T00:30:13;101194.81;;;20.22;58.42
61537;BME280;48695;53.480;-6.300;2023-08-21T00:32:40;101204.91;;;20.31;58.49
61537;BME280;48695;53.480;-6.300;2023-08-21T00:35:06;101200.66;;;20.29;58.47
61537;BME280;48695;53.480;-6.300;2023-08-21T00:37:31;101202.59;;;20.25;58.61
61537;BME280;48695;53.480;-6.300;2023-08-21T00:39:57;101194.81;;;20.22;58.71
61537;BME280;48695;53.480;-6.300;2023-08-21T00:42:22;101207.16;;;20.23;58.00
61537;BME280;48695;53.480;-6.300;2023-08-21T00:44:48;101203.94;;;20.16;58.56
61537;BME280;48695;53.480;-6.300;2023-08-21T00:47:13;101188.47;;;20.09;58.85
61537;BME280;48695;53.480;-6.300;2023-08-21T00:49:39;101193.34;;;20.16;58.78
61537;BME280;48695;53.480;-6.300;2023-08-21T00:52:07;101197.78;;;20.16;58.88
61537;BME280;48695;53.480;-6.300;2023-08-21T00:54:34;101197.53;;;20.05;58.92
61537;BME280;48695;53.480;-6.300;2023-08-21T00:57:00;101198.91;;;20.12;59.13
61537;BME280;48695;53.480;-6.300;2023-08-21T00:59:26;101204.28;;;20.10;59.11
61537;BME280;48695;53.480;-6.300;2023-08-21T01:01:51;101209.69;;;20.09;59.12
61537;BME280;48695;53.480;-6.300;2023-08-21T01:04:16;101214.19;;;20.07;59.39
61537;BME280;48695;53.480;-6.300;2023-08-21T01:06:42;101217.13;;;20.02;59.88
61537;BME280;48695;53.480;-6.300;2023-08-21T01:12:16;101208.28;;;20.02;59.91
61537;BME280;48695;53.480;-6.300;2023-08-21T01:14:59;101208.28;;;20.02;59.25
61537;BME280;48695;53.480;-6.300;2023-08-21T01:17:26;101194.16;;;19.85;59.14
61537;BME280;48695;53.480;-6.300;2023-08-21T01:19:54;101205.03;;;19.96;59.87
61537;BME280;48695;53.480;-6.300;2023-08-21T01:22:20;101205.22;;;19.93;60.19
61537;BME280;48695;53.480;-6.300;2023-08-21T01:24:46;101203.50;;;19.92;59.88
61537;BME280;48695;53.480;-6.300;2023-08-21T01:27:13;101199.91;;;19.93;59.72
61537;BME280;48695;53.480;-6.300;2023-08-21T01:29:41;101202.72;;;19.90;59.88
61537;BME280;48695;53.480;-6.300;2023-08-21T01:32:10;101201.78;;;19.91;59.73
61537;BME280;48695;53.480;-6.300;2023-08-21T01:34:38;101200.25;;;19.87;60.18
61537;BME280;48695;53.480;-6.300;2023-08-21T01:37:05;101196.81;;;19.85;59.84
61537;BME280;48695;53.480;-6.300;2023-08-21T01:39:31;101196.66;;;19.88;57.50
61537;BME280;48695;53.480;-6.300;2023-08-21T01:41:57;101210.06;;;19.85;60.21
61537;BME280;48695;53.480;-6.300;2023-08-21T01:44:23;101185.94;;;19.74;59.84
61537;BME280;48695;53.480;-6.300;2023-08-21T01:46:49;101198.84;;;19.80;60.42
61537;BME280;48695;53.480;-6.300;2023-08-21T01:49:14;101198.94;;;19.79;60.60
61537;BME280;48695;53.480;-6.300;2023-08-21T01:51:40;101183.75;;;19.65;60.48
61537;BME280;48695;53.480;-6.300;2023-08-21T01:54:05;101196.53;;;19.74;60.44
61537;BME280;48695;53.480;-6.300;2023-08-21T01:56:30;101192.16;;;19.73;60.52
61537;BME280;48695;53.480;-6.300;2023-08-21T01:58:56;101191.31;;;19.73;60.47
61537;BME280;48695;53.480;-6.300;2023-08-21T02:01:21;101194.22;;;19.68;61.04
61537;BME280;48695;53.480;-6.300;2023-08-21T02:03:48;101188.91;;;19.68;60.53
61537;BME280;48695;53.480;-6.300;2023-08-21T02:06:13;101187.22;;;19.67;61.36
61537;BME280;48695;53.480;-6.300;2023-08-21T02:08:39;101180.16;;;19.66;60.81
61537;BME280;48695;53.480;-6.300;2023-08-21T02:11:04;101179.31;;;19.65;60.92
61537;BME280;48695;53.480;-6.300;2023-08-21T02:13:30;101175.06;;;19.63;60.97
61537;BME280;48695;53.480;-6.300;2023-08-21T02:15:55;101168.09;;;19.60;61.05
61537;BME280;48695;53.480;-6.300;2023-08-21T02:18:21;101173.59;;;19.56;60.88
61537;BME280;48695;53.480;-6.300;2023-08-21T02:20:47;101161.22;;;19.56;61.45
61537;BME280;48695;53.480;-6.300;2023-08-21T02:23:12;101173.59;;;19.56;61.33
61537;BME280;48695;53.480;-6.300;2023-08-21T02:25:37;101160.53;;;19.53;61.33
61537;BME280;48695;53.480;-6.300;2023-08-21T02:28:03;101161.50;;;19.52;61.42
61537;BME280;48695;53.480;-6.300;2023-08-21T02:30:29;101163.34;;;19.50;61.53
61537;BME280;48695;53.480;-6.300;2023-08-21T02:32:54;101154.63;;;19.48;61.66
61537;BME280;48695;53.480;-6.300;2023-08-21T02:35:20;101152.94;;;19.47;61.42
61537;BME280;48695;53.480;-6.300;2023-08-21T02:37:45;101154.06;;;19.41;62.04
61537;BME280;48695;53.480;-6.300;2023-08-21T02:40:11;101168.13;;;19.43;61.47
61537;BME280;48695;53.480;-6.300;2023-08-21T02:42:36;101162.09;;;19.39;62.01
61537;BME280;48695;53.480;-6.300;2023-08-21T02:45:02;101162.09;;;19.39;61.76
61537;BME280;48695;53.480;-6.300;2023-08-21T02:47:39;101168.34;;;19.38;62.03
61537;BME280;48695;53.480;-6.300;2023-08-21T02:50:05;101166.56;;;19.39;62.07
61537;BME280;48695;53.480;-6.300;2023-08-21T02:52:32;101169.34;;;19.36;61.67
61537;BME280;48695;53.480;-6.300;2023-08-21T02:54:58;101152.31;;;19.24;61.97
61537;BME280;48695;53.480;-6.300;2023-08-21T02:57:27;101170.25;;;19.36;61.70
61537;BME280;48695;53.480;-6.300;2023-08-21T02:59:53;101168.59;;;19.34;61.99
61537;BME280;48695;53.480;-6.300;2023-08-21T03:02:18;101158.94;;;19.33;62.36
61537;BME280;48695;53.480;-6.300;2023-08-21T03:04:44;101137.47;;;19.22;62.09
61537;BME280;48695;53.480;-6.300;2023-08-21T03:07:10;101152.22;;;19.26;62.35
61537;BME280;48695;53.480;-6.300;2023-08-21T03:09:39;101150.13;;;19.32;61.64
61537;BME280;48695;53.480;-6.300;2023-08-21T03:12:05;101103.88;;;19.05;62.53
61537;BME280;48695;53.480;-6.300;2023-08-21T03:14:31;101143.28;;;19.28;62.39
61537;BME280;48695;53.480;-6.300;2023-08-21T03:16:56;101143.44;;;19.25;62.38
61537;BME280;48695;53.480;-6.300;2023-08-21T03:19:22;101133.78;;;19.24;63.01
61537;BME280;48695;53.480;-6.300;2023-08-21T03:21:47;101138.13;;;19.25;62.87
61537;BME280;48695;53.480;-6.300;2023-08-21T03:24:13;101140.00;;;19.23;62.44
61537;BME280;48695;53.480;-6.300;2023-08-21T03:26:38;101142.66;;;19.23;62.65
61537;BME280;48695;53.480;-6.300;2023-08-21T03:29:03;101123.50;;;19.18;62.99
61537;BME280;48695;53.480;-6.300;2023-08-21T03:31:29;101128.66;;;19.21;62.53
61537;BME280;48695;53.480;-6.300;2023-08-21T03:33:55;101130.44;;;19.21;62.88
61537;BME280;48695;53.480;-6.300;2023-08-21T03:36:21;101127.88;;;19.19;62.87
61537;BME280;48695;53.480;-6.300;2023-08-21T03:38:48;101130.50;;;19.19;63.07
61537;BME280;48695;53.480;-6.300;2023-08-21T03:41:13;101128.81;;;19.18;62.99
61537;BME280;48695;53.480;-6.300;2023-08-21T03:43:38;101135.03;;;19.17;63.18
61537;BME280;48695;53.480;-6.300;2023-08-21T03:46:04;101130.69;;;19.16;62.79
61537;BME280;48695;53.480;-6.300;2023-08-21T03:48:29;101121.88;;;19.15;62.72
61537;BME280;48695;53.480;-6.300;2023-08-21T03:50:55;101128.03;;;19.16;62.72
61537;BME280;48695;53.480;-6.300;2023-08-21T03:53:20;101124.59;;;19.14;63.18
61537;BME280;48695;53.480;-6.300;2023-08-21T03:55:46;101131.59;;;19.15;62.86
61537;BME280;48695;53.480;-6.300;2023-08-21T03:58:12;101128.19;;;19.13;63.07
61537;BME280;48695;53.480;-6.300;2023-08-21T04:00:37;101132.63;;;19.12;63.19
61537;BME280;48695;53.480;-6.300;2023-08-21T04:03:03;101125.63;;;19.11;63.00
61537;BME280;48695;53.480;-6.300;2023-08-21T04:05:28;101137.97;;;19.11;63.32
61537;BME280;48695;53.480;-6.300;2023-08-21T04:07:54;101131.84;;;19.10;63.45
61537;BME280;48695;53.480;-6.300;2023-08-21T04:10:19;101146.88;;;19.10;63.14
61537;BME280;48695;53.480;-6.300;2023-08-21T04:12:45;101140.81;;;19.08;63.55
61537;BME280;48695;53.480;-6.300;2023-08-21T04:15:10;101131.91;;;19.09;63.59
61537;BME280;48695;53.480;-6.300;2023-08-21T04:17:35;101128.50;;;19.07;63.39
61537;BME280;48695;53.480;-6.300;2023-08-21T04:20:01;101123.03;;;19.10;63.67
61537;BME280;48695;53.480;-6.300;2023-08-21T04:22:26;101111.84;;;19.05;63.35
61537;BME280;48695;53.480;-6.300;2023-08-21T04:24:52;101115.09;;;19.10;64.02
61537;BME280;48695;53.480;-6.300;2023-08-21T04:27:17;101118.69;;;19.09;63.32
61537;BME280;48695;53.480;-6.300;2023-08-21T04:29:42;101126.63;;;19.09;63.65
61537;BME280;48695;53.480;-6.300;2023-08-21T04:32:08;101121.34;;;19.09;64.00
61537;BME280;48695;53.480;-6.300;2023-08-21T04:34:33;101123.03;;;19.10;63.72
61537;BME280;48695;53.480;-6.300;2023-08-21T04:36:59;101124.75;;;19.11;63.64
61537;BME280;48695;53.480;-6.300;2023-08-21T04:39:25;101119.41;;;19.12;64.00
61537;BME280;48695;53.480;-6.300;2023-08-21T04:41:51;101117.47;;;19.16;64.30
61537;BME280;48695;53.480;-6.300;2023-08-21T04:44:17;101120.88;;;19.18;63.92
61537;BME280;48695;53.480;-6.300;2023-08-21T04:46:42;101113.63;;;19.22;63.56
61537;BME280;48695;53.480;-6.300;2023-08-21T04:49:07;101109.94;;;19.24;64.26
61537;BME280;48695;53.480;-6.300;2023-08-21T04:51:34;101111.66;;;19.25;64.25
61537;BME280;48695;53.480;-6.300;2023-08-21T04:53:59;101115.09;;;19.27;64.70
61537;BME280;48695;53.480;-6.300;2023-08-21T04:56:26;101097.78;;;19.20;64.12
61537;BME280;48695;53.480;-6.300;2023-08-21T04:58:52;101105.97;;;19.33;64.72
61537;BME280;48695;53.480;-6.300;2023-08-21T05:01:17;101109.47;;;19.33;64.64
61537;BME280;48695;53.480;-6.300;2023-08-21T05:03:43;101104.88;;;19.37;64.66
61537;BME280;48695;53.480;-6.300;2023-08-21T05:06:08;101094.97;;;19.40;64.70
61537;BME280;48695;53.480;-6.300;2023-08-21T05:08:34;101105.41;;;19.43;64.51
61537;BME280;48695;53.480;-6.300;2023-08-21T05:11:00;101092.91;;;19.45;64.84
61537;BME280;48695;53.480;-6.300;2023-08-21T05:13:26;101095.41;;;19.49;64.55
61537;BME280;48695;53.480;-6.300;2023-08-21T05:15:52;101105.78;;;19.53;64.28
61537;BME280;48695;53.480;-6.300;2023-08-21T05:18:20;101103.81;;;19.57;64.07
61537;BME280;48695;53.480;-6.300;2023-08-21T05:20:46;101098.44;;;19.58;63.79
61537;BME280;48695;53.480;-6.300;2023-08-21T05:23:12;101099.16;;;19.62;64.08
61537;BME280;48695;53.480;-6.300;2023-08-21T05:25:37;101098.97;;;19.65;63.87
61537;BME280;48695;53.480;-6.300;2023-08-21T05:28:04;101096.19;;;19.68;63.97
61537;BME280;48695;53.480;-6.300;2023-08-21T05:30:29;101089.78;;;19.72;64.11
61537;BME280;48695;53.480;-6.300;2023-08-21T05:32:55;101090.53;;;19.74;64.38
61537;BME280;48695;53.480;-6.300;2023-08-21T05:35:20;101086.00;;;19.76;64.37
61537;BME280;48695;53.480;-6.300;2023-08-21T05:37:46;101080.53;;;19.79;63.99
61537;BME280;48695;53.480;-6.300;2023-08-21T05:40:11;101070.94;;;19.77;63.51
61537;BME280;48695;53.480;-6.300;2023-08-21T05:42:37;101096.09;;;19.85;64.13
61537;BME280;48695;53.480;-6.300;2023-08-21T05:45:03;101089.09;;;19.84;63.57
61537;BME280;48695;53.480;-6.300;2023-08-21T05:47:29;101093.28;;;19.88;63.53
61537;BME280;48695;53.480;-6.300;2023-08-21T05:49:54;101098.50;;;19.90;63.51
61537;BME280;48695;53.480;-6.300;2023-08-21T05:52:21;101086.00;;;19.92;63.45
61537;BME280;48695;53.480;-6.300;2023-08-21T05:54:47;101100.72;;;19.98;61.82
61537;BME280;48695;53.480;-6.300;2023-08-21T05:57:13;101097.53;;;19.91;63.00
61537;BME280;48695;53.480;-6.300;2023-08-21T05:59:46;101100.72;;;19.98;62.83
61537;BME280;48695;53.480;-6.300;2023-08-21T06:02:13;101083.44;;;19.90;63.39
61537;BME280;48695;53.480;-6.300;2023-08-21T06:04:42;101110.19;;;20.02;62.89
61537;BME280;48695;53.480;-6.300;2023-08-21T06:07:08;101107.75;;;19.99;63.68
61537;BME280;48695;53.480;-6.300;2023-08-21T06:09:34;101101.41;;;20.01;63.64
61537;BME280;48695;53.480;-6.300;2023-08-21T06:12:01;101106.53;;;20.04;62.99
61537;BME280;48695;53.480;-6.300;2023-08-21T06:14:27;101112.59;;;20.06;63.51
61537;BME280;48695;53.480;-6.300;2023-08-21T06:17:00;101110.66;;;20.10;63.29
61537;BME280;48695;53.480;-6.300;2023-08-21T06:19:27;101110.53;;;20.11;63.18
61537;BME280;48695;53.480;-6.300;2023-08-21T06:21:52;101106.03;;;20.13;63.03
61537;BME280;48695;53.480;-6.300;2023-08-21T06:24:18;101103.38;;;20.13;63.27
61537;BME280;48695;53.480;-6.300;2023-08-21T06:26:43;101110.13;;;20.19;63.39
61537;BME280;48695;53.480;-6.300;2023-08-21T06:29:09;101122.28;;;20.23;63.38
61537;BME280;48695;53.480;-6.300;2023-08-21T06:31:34;101119.44;;;20.26;63.11
61537;BME280;48695;53.480;-6.300;2023-08-21T06:33:59;101142.97;;;20.32;62.63
61537;BME280;48695;53.480;-6.300;2023-08-21T06:36:25;101110.13;;;20.35;63.15
61537;BME280;48695;53.480;-6.300;2023-08-21T06:38:50;101117.81;;;20.39;62.62
61537;BME280;48695;53.480;-6.300;2023-08-21T06:41:16;101120.28;;;20.42;62.82
61537;BME280;48695;53.480;-6.300;2023-08-21T06:43:41;101112.09;;;20.47;63.16
61537;BME280;48695;53.480;-6.300;2023-08-21T06:46:07;101122.44;;;20.52;62.57
61537;BME280;48695;53.480;-6.300;2023-08-21T06:48:33;101115.25;;;20.54;62.49
61537;BME280;48695;53.480;-6.300;2023-08-21T06:50:59;101108.06;;;20.56;62.79
61537;BME280;48695;53.480;-6.300;2023-08-21T06:53:24;101121.06;;;20.60;62.48
61537;BME280;48695;53.480;-6.300;2023-08-21T06:55:50;101116.59;;;20.61;62.47
61537;BME280;48695;53.480;-6.300;2023-08-21T06:58:15;101120.00;;;20.63;62.20
61537;BME280;48695;53.480;-6.300;2023-08-21T07:00:40;101115.25;;;20.54;62.17
61537;BME280;48695;53.480;-6.300;2023-08-21T07:03:06;101142.13;;;20.63;61.95
61537;BME280;48695;53.480;-6.300;2023-08-21T07:05:34;101135.78;;;20.66;62.05
61537;BME280;48695;53.480;-6.300;2023-08-21T07:08:00;101132.38;;;20.64;62.12
61537;BME280;48695;53.480;-6.300;2023-08-21T07:10:25;101147.34;;;20.65;61.60
61537;BME280;48695;53.480;-6.300;2023-08-21T07:12:51;101135.78;;;20.66;62.43
61537;BME280;48695;53.480;-6.300;2023-08-21T07:15:16;101141.06;;;20.66;62.47
61537;BME280;48695;53.480;-6.300;2023-08-21T07:17:41;101146.38;;;20.66;62.16
61537;BME280;48695;53.480;-6.300;2023-08-21T07:20:07;101146.53;;;20.63;62.05
61537;BME280;48695;53.480;-6.300;2023-08-21T07:22:33;101153.41;;;20.67;62.10
61537;BME280;48695;53.480;-6.300;2023-08-21T07:24:58;101146.38;;;20.66;62.65
61537;BME280;48695;53.480;-6.300;2023-08-21T07:27:26;101140.91;;;20.69;62.61
61537;BME280;48695;53.480;-6.300;2023-08-21T07:29:51;101165.56;;;20.71;62.32
61537;BME280;48695;53.480;-6.300;2023-08-21T07:32:16;101149.63;;;20.71;61.70
61537;BME280;48695;53.480;-6.300;2023-08-21T07:34:42;101152.88;;;20.76;62.34
61537;BME280;48695;53.480;-6.300;2023-08-21T07:37:08;101150.97;;;20.78;62.42
61537;BME280;48695;53.480;-6.300;2023-08-21T07:39:34;101150.81;;;20.81;62.15
61537;BME280;48695;53.480;-6.300;2023-08-21T07:41:59;101161.25;;;20.84;62.23
61537;BME280;48695;53.480;-6.300;2023-08-21T07:44:26;101146.09;;;20.86;62.45
61537;BME280;48695;53.480;-6.300;2023-08-21T07:46:51;101148.56;;;20.89;61.97
61537;BME280;48695;53.480;-6.300;2023-08-21T07:49:17;101150.09;;;20.93;61.83
61537;BME280;48695;53.480;-6.300;2023-08-21T07:51:42;101144.44;;;20.99;61.17
61537;BME280;48695;53.480;-6.300;2023-08-21T07:54:07;101149.53;;;21.03;60.85
61537;BME280;48695;53.480;-6.300;2023-08-21T07:56:33;101146.72;;;21.06;60.35
61537;BME280;48695;53.480;-6.300;2023-08-21T07:59:00;101149.00;;;21.12;60.39
61537;BME280;48695;53.480;-6.300;2023-08-21T08:01:26;101127.72;;;20.97;61.00
61537;BME280;48695;53.480;-6.300;2023-08-21T08:03:52;101157.16;;;21.09;61.00
61537;BME280;48695;53.480;-6.300;2023-08-21T08:06:17;101160.47;;;21.12;60.31
61537;BME280;48695;53.480;-6.300;2023-08-21T08:08:43;101150.81;;;21.11;60.39
61537;BME280;48695;53.480;-6.300;2023-08-21T08:11:09;101147.97;;;21.14;60.07
61537;BME280;48695;53.480;-6.300;2023-08-21T08:13:34;101148.63;;;21.18;59.44
61537;BME280;48695;53.480;-6.300;2023-08-21T08:16:00;101134.41;;;21.19;59.51
61537;BME280;48695;53.480;-6.300;2023-08-21T08:18:26;101135.91;;;21.23;59.24
61537;BME280;48695;53.480;-6.300;2023-08-21T08:20:51;101137.66;;;21.24;59.52
61537;BME280;48695;53.480;-6.300;2023-08-21T08:23:18;101131.13;;;21.30;58.80
61537;BME280;48695;53.480;-6.300;2023-08-21T08:25:44;101144.31;;;21.31;58.83
61537;BME280;48695;53.480;-6.300;2023-08-21T08:28:09;101121.16;;;21.33;58.71
61537;BME280;48695;53.480;-6.300;2023-08-21T08:30:35;101104.81;;;21.11;59.08
61537;BME280;48695;53.480;-6.300;2023-08-21T08:33:00;101134.84;;;21.41;59.44
61537;BME280;48695;53.480;-6.300;2023-08-21T08:35:26;101130.84;;;21.48;58.48
61537;BME280;48695;53.480;-6.300;2023-08-21T08:37:51;101140.25;;;21.54;58.15
61537;BME280;48695;53.480;-6.300;2023-08-21T08:40:16;101123.66;;;21.50;58.75
61537;BME280;48695;53.480;-6.300;2023-08-21T08:42:42;101133.53;;;21.63;57.10
61537;BME280;48695;53.480;-6.300;2023-08-21T08:45:08;101147.38;;;21.68;57.10
61537;BME280;48695;53.480;-6.300;2023-08-21T08:47:34;101122.50;;;21.69;56.70
61537;BME280;48695;53.480;-6.300;2023-08-21T08:50:04;101131.03;;;21.74;57.48
61537;BME280;48695;53.480;-6.300;2023-08-21T08:52:34;101134.28;;;21.79;56.72
61537;BME280;48695;53.480;-6.300;2023-08-21T08:55:01;101121.75;;;21.81;56.44
61537;BME280;48695;53.480;-6.300;2023-08-21T08:57:27;101107.09;;;21.88;56.22
61537;BME280;48695;53.480;-6.300;2023-08-21T08:59:53;101134.41;;;22.05;55.68
61537;BME280;48695;53.480;-6.300;2023-08-21T09:02:18;101132.63;;;22.19;55.92
61537;BME280;48695;53.480;-6.300;2023-08-21T09:04:44;101132.47;;;22.35;55.77
61537;BME280;48695;53.480;-6.300;2023-08-21T09:07:10;101118.94;;;22.52;54.58
61537;BME280;48695;53.480;-6.300;2023-08-21T09:09:46;101120.94;;;22.76;55.18
61537;BME280;48695;53.480;-6.300;2023-08-21T09:12:13;101114.59;;;22.91;52.71
61537;BME280;48695;53.480;-6.300;2023-08-21T09:14:40;101104.81;;;23.04;52.80
61537;BME280;48695;53.480;-6.300;2023-08-21T09:17:06;101116.53;;;23.15;51.54
61537;BME280;48695;53.480;-6.300;2023-08-21T09:19:32;101106.75;;;23.28;51.51
61537;BME280;48695;53.480;-6.300;2023-08-21T09:21:58;101104.63;;;23.33;51.69
61537;BME280;48695;53.480;-6.300;2023-08-21T09:24:23;101109.19;;;23.44;51.76
61537;BME280;48695;53.480;-6.300;2023-08-21T09:26:50;101121.31;;;23.61;51.55
61537;BME280;48695;53.480;-6.300;2023-08-21T09:29:15;101102.78;;;23.72;52.07
61537;BME280;48695;53.480;-6.300;2023-08-21T09:31:40;101112.84;;;23.92;49.92
61537;BME280;48695;53.480;-6.300;2023-08-21T09:34:08;101098.66;;;24.04;50.16
61537;BME280;48695;53.480;-6.300;2023-08-21T09:36:34;101101.22;;;24.30;48.39
61537;BME280;48695;53.480;-6.300;2023-08-21T09:39:01;101110.56;;;24.48;48.49
61537;BME280;48695;53.480;-6.300;2023-08-21T09:41:28;101104.47;;;24.70;47.42
61537;BME280;48695;53.480;-6.300;2023-08-21T09:43:58;101079.38;;;24.84;47.80
61537;BME280;48695;53.480;-6.300;2023-08-21T09:46:25;101114.69;;;25.12;45.37
61537;BME280;48695;53.480;-6.300;2023-08-21T09:48:54;101107.06;;;25.29;45.84
61537;BME280;48695;53.480;-6.300;2023-08-21T09:51:20;101100.75;;;25.42;44.79
61537;BME280;48695;53.480;-6.300;2023-08-21T09:53:48;101085.81;;;25.61;45.22
61537;BME280;48695;53.480;-6.300;2023-08-21T09:56:14;101096.63;;;25.71;44.53
61537;BME280;48695;53.480;-6.300;2023-08-21T09:58:39;101104.50;;;25.95;43.80
61537;BME280;48695;53.480;-6.300;2023-08-21T10:01:07;101112.66;;;26.16;43.16
61537;BME280;48695;53.480;-6.300;2023-08-21T10:03:42;101097.00;;;26.32;42.26
61537;BME280;48695;53.480;-6.300;2023-08-21T10:06:10;101102.81;;;26.49;42.68
61537;BME280;48695;53.480;-6.300;2023-08-21T10:08:38;101096.19;;;26.64;41.94
61537;BME280;48695;53.480;-6.300;2023-08-21T10:11:07;101085.22;;;26.88;41.71
61537;BME280;48695;53.480;-6.300;2023-08-21T10:13:34;101100.00;;;27.03;40.49
61537;BME280;48695;53.480;-6.300;2023-08-21T10:16:00;101097.50;;;27.11;40.10
61537;BME280;48695;53.480;-6.300;2023-08-21T10:18:36;101094.41;;;27.37;41.42
61537;BME280;48695;53.480;-6.300;2023-08-21T10:21:22;101105.31;;;27.45;41.41
61537;BME280;48695;53.480;-6.300;2023-08-21T10:23:51;101095.94;;;27.60;39.98
61537;BME280;48695;53.480;-6.300;2023-08-21T10:26:21;101090.94;;;27.77;39.34
61537;BME280;48695;53.480;-6.300;2023-08-21T10:28:53;101098.63;;;28.01;39.11
61537;BME280;48695;53.480;-6.300;2023-08-21T10:31:36;101091.72;;;28.17;39.57
61537;BME280;48695;53.480;-6.300;2023-08-21T10:34:19;101087.94;;;28.30;39.05
61537;BME280;48695;53.480;-6.300;2023-08-21T10:39:18;101078.88;;;28.31;37.20
61537;BME280;48695;53.480;-6.300;2023-08-21T10:42:05;101084.28;;;28.40;39.26
61537;BME280;48695;53.480;-6.300;2023-08-21T10:44:36;101101.00;;;28.44;37.84
61537;BME280;48695;53.480;-6.300;2023-08-21T10:47:31;101105.22;;;28.47;38.43
61537;BME280;48695;53.480;-6.300;2023-08-21T10:50:02;101091.09;;;28.35;35.56
61537;BME280;48695;53.480;-6.300;2023-08-21T10:52:36;101073.78;;;28.28;36.92
61537;BME280;48695;53.480;-6.300;2023-08-21T10:55:03;101074.47;;;28.10;37.38
61537;BME280;48695;53.480;-6.300;2023-08-21T10:57:33;101081.72;;;28.19;36.33
61537;BME280;48695;53.480;-6.300;2023-08-21T11:00:02;101066.16;;;28.23;36.34
61537;BME280;48695;53.480;-6.300;2023-08-21T11:02:33;101078.03;;;28.21;36.54
61537;BME280;48695;53.480;-6.300;2023-08-21T11:04:59;101073.94;;;28.26;37.09
61537;BME280;48695;53.480;-6.300;2023-08-21T11:07:25;101060.28;;;28.39;37.04
61537;BME280;48695;53.480;-6.300;2023-08-21T11:09:51;101049.94;;;28.44;36.83
61537;BME280;48695;53.480;-6.300;2023-08-21T11:12:19;101063.91;;;28.57;36.93
61537;BME280;48695;53.480;-6.300;2023-08-21T11:14:45;101070.13;;;28.58;37.43
61537;BME280;48695;53.480;-6.300;2023-08-21T11:17:12;101064.75;;;28.67;36.32
61537;BME280;48695;53.480;-6.300;2023-08-21T11:19:39;101064.47;;;28.80;35.60
61537;BME280;48695;53.480;-6.300;2023-08-21T11:22:05;101047.91;;;28.85;35.00
61537;BME280;48695;53.480;-6.300;2023-08-21T11:24:47;101051.72;;;28.92;37.01
61537;BME280;48695;53.480;-6.300;2023-08-21T11:27:15;101038.44;;;28.81;36.27
61537;BME280;48695;53.480;-6.300;2023-08-21T11:29:43;101046.31;;;28.92;36.15
61537;BME280;48695;53.480;-6.300;2023-08-21T11:32:22;101045.13;;;29.24;37.43
61537;BME280;48695;53.480;-6.300;2023-08-21T11:34:55;101032.88;;;29.39;36.54
61537;BME280;48695;53.480;-6.300;2023-08-21T11:37:25;101046.66;;;29.63;36.72
61537;BME280;48695;53.480;-6.300;2023-08-21T11:39:53;101034.50;;;29.87;35.04
61537;BME280;48695;53.480;-6.300;2023-08-21T11:42:20;101036.72;;;30.09;33.79
61537;BME280;48695;53.480;-6.300;2023-08-21T11:44:47;101031.78;;;30.32;34.37
61537;BME280;48695;53.480;-6.300;2023-08-21T11:47:13;101035.13;;;30.52;33.62
61537;BME280;48695;53.480;-6.300;2023-08-21T11:49:40;101026.88;;;30.71;32.67
61537;BME280;48695;53.480;-6.300;2023-08-21T11:52:11;101002.38;;;30.83;33.33
61537;BME280;48695;53.480;-6.300;2023-08-21T11:54:38;101027.00;;;30.88;32.18
61537;BME280;48695;53.480;-6.300;2023-08-21T11:57:12;101030.69;;;30.87;32.17
61537;BME280;48695;53.480;-6.300;2023-08-21T11:59:38;101019.84;;;30.79;32.28
61537;BME280;48695;53.480;-6.300;2023-08-21T12:02:14;101026.03;;;30.71;32.40
61537;BME280;48695;53.480;-6.300;2023-08-21T12:04:39;101023.97;;;30.47;31.48
61537;BME280;48695;53.480;-6.300;2023-08-21T12:07:05;101026.69;;;30.29;32.20
61537;BME280;48695;53.480;-6.300;2023-08-21T12:09:31;101029.84;;;30.24;32.11
61537;BME280;48695;53.480;-6.300;2023-08-21T12:11:56;101043.31;;;30.24;32.19
61537;BME280;48695;53.480;-6.300;2023-08-21T12:14:22;101026.69;;;30.29;30.94
61537;BME280;48695;53.480;-6.300;2023-08-21T12:16:48;101015.59;;;30.32;31.47
61537;BME280;48695;53.480;-6.300;2023-08-21T12:19:13;101018.34;;;30.40;31.82
61537;BME280;48695;53.480;-6.300;2023-08-21T12:21:39;101011.81;;;30.43;31.86
61537;BME280;48695;53.480;-6.300;2023-08-21T12:24:05;101026.63;;;30.65;32.29
61537;BME280;48695;53.480;-6.300;2023-08-21T12:26:32;101004.69;;;30.78;30.55
61537;BME280;48695;53.480;-6.300;2023-08-21T12:28:57;101007.41;;;30.86;32.13
61537;BME280;48695;53.480;-6.300;2023-08-21T12:31:23;101001.63;;;31.07;30.63
61537;BME280;48695;53.480;-6.300;2023-08-21T12:33:48;100997.75;;;31.35;29.43
61537;BME280;48695;53.480;-6.300;2023-08-21T12:36:14;100996.28;;;31.49;29.23
61537;BME280;48695;53.480;-6.300;2023-08-21T12:38:39;101002.22;;;31.61;29.48
61537;BME280;48695;53.480;-6.300;2023-08-21T12:41:05;100998.72;;;31.68;30.96
61537;BME280;48695;53.480;-6.300;2023-08-21T12:43:31;100997.09;;;31.84;29.87